• Join FlightAware (Why Join?)
  • Login
  • US Flag 
12:25AM EDT


 

Airport Tracker/Info


-or-


 

Live Flight TrackerFlight Track Log ✈ LOF3385 ✈ 01-Oct-2013 ✈ KGRR - KIAD

Flight Track Log - Related Links

Times and Time Zones

All times are in EDT time to prevent confusion due to time zone crossing. See the LOF3385 flight status page for this flight to view local times or setup timezone preferences in your user account.

Time Position Orientation Groundspeed Altitude Reporting Facility
EDT Latitude Longitude Course Direction KTS MPH feet Rate Location/Type
02:35PM 42.8078 -85.5342 159° South 191 220 5,400  Level Chicago Center
02:36PM 42.7728 -85.4428 118° Southeast 259 298 7,500 2,220 Climbing Chicago Center
02:37PM 42.7364 -85.3408 116° Southeast 293 337 10,000 2,100 Climbing Chicago Center
02:38PM 42.6978 -85.2369 117° Southeast 306 352 11,900 1,440 Climbing Chicago Center
02:39PM 42.6531 -85.1172 117° Southeast 353 406 13,000 1,260 Climbing Chicago Center
02:40PM 42.5981 -84.9619 116° Southeast 381 438 14,600 1,320 Climbing Chicago Center
02:41PM 42.5494 -84.8247 116° Southeast 399 459 15,800 1,200 Climbing Chicago Center
02:42PM 42.4994 -84.6844 116° Southeast 412 474 17,200 1,200 Climbing Chicago Center
02:43PM 42.4469 -84.5406 116° Southeast 425 489 18,300 1,080 Climbing Chicago Center
02:44PM 42.3950 -84.3958 116° Southeast 428 493 19,500 1,200 Climbing Chicago Center
02:45PM 42.3317 -84.2222 116° Southeast 440 506 21,000 1,320 Climbing Cleveland Center
02:46PM 42.2694 -84.0553 117° Southeast 444 511 22,400 1,260 Climbing Cleveland Center
02:47PM 42.2147 -83.9067 116° Southeast 445 512 23,700 1,200 Climbing Cleveland Center
02:48PM 42.1592 -83.7589 117° Southeast 448 516 24,900 1,140 Climbing Cleveland Center
02:49PM 42.1039 -83.6117 117° Southeast 449 517 26,100 1,200 Climbing Cleveland Center
02:50PM 42.0389 -83.4403 117° Southeast 450 518 27,500 1,260 Climbing Cleveland Center
02:51PM 41.9658 -83.3025 125° Southeast 448 516 28,800 1,200 Climbing Cleveland Center
02:53PM 41.8931 -83.1639 125° Southeast 450 518 30,000 1,200 Climbing Cleveland Center
02:54PM 41.8200 -83.0253 125° Southeast 456 525 31,300 1,200 Climbing Cleveland Center
02:55PM 41.7458 -82.8850 125° Southeast 462 532 32,600 1,260 Climbing Cleveland Center
02:56PM 41.6567 -82.7194 126° Southeast 459 528 34,000 1,140 Climbing Cleveland Center
02:57PM 41.5819 -82.5772 125° Southeast 461 531 35,000 480 Climbing Cleveland Center
02:58PM 41.5033 -82.4317 126° Southeast 476 548 35,100 480 Climbing Cleveland Center
02:59PM 41.4231 -82.2839 126° Southeast 487 560 36,000 420 Climbing Cleveland Center
03:00PM 41.3381 -82.1431 129° Southeast 485 558 36,000  Level Cleveland Center
03:01PM 41.2292 -82.0283 142° Southeast 474 545 36,000  Level Cleveland Center
03:02PM 41.1342 -81.9072 136° Southeast 472 543 36,000  Level Cleveland Center
03:03PM 41.0311 -81.7672 134° Southeast 478 550 36,000  Level Cleveland Center
03:04PM 40.9364 -81.6408 135° Southeast 483 556 36,000  Level Cleveland Center
03:05PM 40.8406 -81.5147 135° Southeast 484 557 36,000  Level Cleveland Center
03:06PM 40.7450 -81.3878 135° Southeast 487 560 36,000  Level Cleveland Center
03:07PM 40.6322 -81.2403 135° Southeast 487 560 36,000  Level Cleveland Center
03:08PM 40.5500 -81.1292 134° Southeast 480 552 36,000  Level Cleveland Center
03:09PM 40.4569 -81.0072 135° Southeast 476 548 36,000 -120 Level Cleveland Center
03:10PM 40.3458 -80.8628 135° Southeast 473 544 35,800 -900 Descending Cleveland Center
03:11PM 40.2536 -80.7436 135° Southeast 471 542 34,200 -1,380 Descending Cleveland Center
03:12PM 40.1619 -80.6256 135° Southeast 468 539 33,000 -600 Descending Cleveland Center
03:13PM 40.0719 -80.5097 135° Southeast 462 532 33,000  Level Cleveland Center
03:14PM 39.9803 -80.3928 136° Southeast 465 535 33,000 -1,080 Level Cleveland Center
03:15PM 39.8683 -80.2500 136° Southeast 473 544 30,800 -2,220 Descending Cleveland Center
03:16PM 39.7714 -80.1272 136° Southeast 484 557 28,500 -1,800 Descending Cleveland Center
03:17PM 39.6814 -80.0128 136° Southeast 459 528 27,100 -780 Descending Cleveland Center
03:18PM 39.6003 -79.9125 136° Southeast 413 475 27,000 -60 Descending Cleveland Center
03:19PM 39.5453 -79.7906 120° Southeast 405 466 27,000  Level Cleveland Center
03:20PM 39.5172 -79.6214 102° East 384 442 27,000 -540 Level Washington Center
03:21PM 39.4906 -79.4775 103° East 396 456 26,000 -1,380 Descending Washington Center
03:22PM 39.4658 -79.3389 103° East 401 461 24,300 -1,680 Descending Washington Center
03:23PM 39.4406 -79.2142 105° East 401 461 22,700 -1,680 Descending Washington Center
03:24PM 39.4172 -79.0811 103° East 396 456 21,100 -1,440 Descending Washington Center
03:25PM 39.3919 -78.9431 103° East 377 434 19,900 -1,500 Descending Washington Center
03:26PM 39.3683 -78.8158 103° East 365 420 18,100 -1,860 Descending Washington Center
03:27PM 39.3467 -78.6942 103° East 355 409 16,200 -1,980 Descending Washington Center
03:28PM 39.3247 -78.5750 103° East 345 397 14,200 -1,380 Descending Washington Center
03:29PM 39.3025 -78.4508 103° East 345 397 13,500 -600 Descending Washington Center
03:30PM 39.2742 -78.3289 107° East 345 397 13,100 -1,080 Descending Washington Center
03:31PM 39.2094 -78.2436 134° Southeast 338 389 11,400 -1,560 Descending Washington Center
03:32PM 39.1267 -78.2192 167° South 304 350 10,100 -720 Descending Washington Center
03:33PM 39.0503 -78.1842 160° South 294 338 10,000 -240 Descending Washington Center
03:34PM 38.9806 -78.1231 146° Southeast 294 338 9,700 -1,140 Descending Washington Center
03:35PM 38.9742 -78.0267 95° East 253 291 7,800 -1,920 Descending Washington Center
03:36PM 38.9700 -77.9278 93° East 251 289 6,000 -960 Descending Washington Center
03:37PM 38.9694 -77.8422 90° East 257 296 6,000  Level Washington Center
03:38PM 38.9650 -77.7381 93° East 268 308 6,000  Level Washington Center
03:40PM 38.9000 -77.6000 121° Southeast 248 285 6,000  Level Potomac TRACON
03:41PM 38.8333 -77.5667 159° South 244 281 6,000 -840 Level Potomac TRACON
03:42PM 38.7667 -77.5667 180° South 244 281 4,400 -1,320 Descending Potomac TRACON
03:43PM 38.8000 -77.5000 57° Northeast 203 234 3,500 -1,020 Descending Potomac TRACON
03:44PM 38.8333 -77.4833 21° North 179 206 2,500 -1,020 Descending Potomac TRACON
03:45PM 38.8833 -77.4833 360° North 171 197 1,500 -900 Descending Potomac TRACON
03:46PM 38.9167 -77.4667 21° North 135 155 800 -720 Descending Potomac TRACON
03:48PM 38.9333 -77.4500 165° South  Level FlightAware Approximate
03:55PM 38.9474 -77.4599 165° South  Level Estimated
03:56PM 38.9474 -77.4599 165° South  Level Estimated